sensor_id;sensor_type;location;lat;lon;timestamp;P1;durP1;ratioP1;P2;durP2;ratioP2
67053;SDS011;53960;51.826;5.850;2022-11-23T00:01:22;14.77;;;5.53;;
67053;SDS011;53960;51.826;5.850;2022-11-23T00:03:50;13.32;;;5.60;;
67053;SDS011;53960;51.826;5.850;2022-11-23T00:06:17;13.27;;;5.43;;
67053;SDS011;53960;51.826;5.850;2022-11-23T00:08:43;14.00;;;5.70;;
67053;SDS011;53960;51.826;5.850;2022-11-23T00:11:09;12.88;;;5.75;;
67053;SDS011;53960;51.826;5.850;2022-11-23T00:13:35;14.83;;;6.10;;
67053;SDS011;53960;51.826;5.850;2022-11-23T00:16:12;15.82;;;6.22;;
67053;SDS011;53960;51.826;5.850;2022-11-23T00:18:39;13.43;;;5.57;;
67053;SDS011;53960;51.826;5.850;2022-11-23T00:21:05;13.90;;;5.30;;
67053;SDS011;53960;51.826;5.850;2022-11-23T00:23:35;11.73;;;5.50;;
67053;SDS011;53960;51.826;5.850;2022-11-23T00:26:01;14.02;;;5.57;;
67053;SDS011;53960;51.826;5.850;2022-11-23T00:28:27;13.60;;;6.20;;
67053;SDS011;53960;51.826;5.850;2022-11-23T00:30:52;14.37;;;6.10;;
67053;SDS011;53960;51.826;5.850;2022-11-23T00:33:17;16.33;;;5.63;;
67053;SDS011;53960;51.826;5.850;2022-11-23T00:35:43;15.07;;;5.93;;
67053;SDS011;53960;51.826;5.850;2022-11-23T00:38:09;15.10;;;5.97;;
67053;SDS011;53960;51.826;5.850;2022-11-23T00:40:34;12.40;;;5.43;;
67053;SDS011;53960;51.826;5.850;2022-11-23T00:42:59;15.23;;;5.90;;
67053;SDS011;53960;51.826;5.850;2022-11-23T00:45:24;17.97;;;5.70;;
67053;SDS011;53960;51.826;5.850;2022-11-23T00:47:50;12.97;;;5.53;;
67053;SDS011;53960;51.826;5.850;2022-11-23T00:50:15;16.63;;;5.97;;
67053;SDS011;53960;51.826;5.850;2022-11-23T00:52:41;12.30;;;4.93;;
67053;SDS011;53960;51.826;5.850;2022-11-23T00:55:06;15.80;;;5.40;;
67053;SDS011;53960;51.826;5.850;2022-11-23T00:57:32;18.83;;;5.90;;
67053;SDS011;53960;51.826;5.850;2022-11-23T00:59:58;15.13;;;6.03;;
67053;SDS011;53960;51.826;5.850;2022-11-23T01:02:23;15.80;;;5.43;;
67053;SDS011;53960;51.826;5.850;2022-11-23T01:04:49;12.30;;;5.10;;
67053;SDS011;53960;51.826;5.850;2022-11-23T01:07:14;16.87;;;5.27;;
67053;SDS011;53960;51.826;5.850;2022-11-23T01:09:39;14.30;;;5.30;;
67053;SDS011;53960;51.826;5.850;2022-11-23T01:12:05;12.70;;;4.83;;
67053;SDS011;53960;51.826;5.850;2022-11-23T01:14:30;18.90;;;5.40;;
67053;SDS011;53960;51.826;5.850;2022-11-23T01:16:55;14.67;;;5.63;;
67053;SDS011;53960;51.826;5.850;2022-11-23T01:19:21;20.87;;;5.23;;
67053;SDS011;53960;51.826;5.850;2022-11-23T01:21:46;12.27;;;4.90;;
67053;SDS011;53960;51.826;5.850;2022-11-23T01:24:12;12.60;;;5.27;;
67053;SDS011;53960;51.826;5.850;2022-11-23T01:26:40;12.57;;;5.00;;
67053;SDS011;53960;51.826;5.850;2022-11-23T01:29:08;15.18;;;5.45;;
67053;SDS011;53960;51.826;5.850;2022-11-23T01:31:34;15.75;;;4.40;;
67053;SDS011;53960;51.826;5.850;2022-11-23T01:34:00;10.70;;;3.93;;
67053;SDS011;53960;51.826;5.850;2022-11-23T01:36:31;17.58;;;4.07;;
67053;SDS011;53960;51.826;5.850;2022-11-23T01:38:58;16.17;;;4.50;;
67053;SDS011;53960;51.826;5.850;2022-11-23T01:41:26;18.60;;;4.30;;
67053;SDS011;53960;51.826;5.850;2022-11-23T01:43:56;14.63;;;3.60;;
67053;SDS011;53960;51.826;5.850;2022-11-23T01:46:21;14.17;;;3.80;;
67053;SDS011;53960;51.826;5.850;2022-11-23T01:48:48;12.93;;;3.55;;
67053;SDS011;53960;51.826;5.850;2022-11-23T01:51:22;14.40;;;3.58;;
67053;SDS011;53960;51.826;5.850;2022-11-23T01:53:51;16.50;;;4.20;;
67053;SDS011;53960;51.826;5.850;2022-11-23T01:56:19;12.75;;;3.42;;
67053;SDS011;53960;51.826;5.850;2022-11-23T01:58:49;10.85;;;3.83;;
67053;SDS011;53960;51.826;5.850;2022-11-23T02:01:17;14.65;;;3.75;;
67053;SDS011;53960;51.826;5.850;2022-11-23T02:03:43;13.43;;;3.47;;
67053;SDS011;53960;51.826;5.850;2022-11-23T02:06:16;13.13;;;3.25;;
67053;SDS011;53960;51.826;5.850;2022-11-23T02:08:42;11.45;;;3.10;;
67053;SDS011;53960;51.826;5.850;2022-11-23T02:11:09;12.73;;;3.00;;
67053;SDS011;53960;51.826;5.850;2022-11-23T02:13:36;11.63;;;3.27;;
67053;SDS011;53960;51.826;5.850;2022-11-23T02:16:02;10.38;;;2.80;;
67053;SDS011;53960;51.826;5.850;2022-11-23T02:18:28;13.03;;;3.23;;
67053;SDS011;53960;51.826;5.850;2022-11-23T02:20:56;10.80;;;3.10;;
67053;SDS011;53960;51.826;5.850;2022-11-23T02:26:24;11.20;;;3.23;;
67053;SDS011;53960;51.826;5.850;2022-11-23T02:28:53;13.82;;;3.13;;
67053;SDS011;53960;51.826;5.850;2022-11-23T02:31:24;11.52;;;2.80;;
67053;SDS011;53960;51.826;5.850;2022-11-23T02:33:49;11.50;;;2.60;;
67053;SDS011;53960;51.826;5.850;2022-11-23T02:39:35;13.55;;;2.72;;
67053;SDS011;53960;51.826;5.850;2022-11-23T02:42:04;12.93;;;2.80;;
67053;SDS011;53960;51.826;5.850;2022-11-23T02:44:52;14.82;;;3.22;;
67053;SDS011;53960;51.826;5.850;2022-11-23T02:47:25;9.77;;;2.58;;
67053;SDS011;53960;51.826;5.850;2022-11-23T02:49:50;12.97;;;2.10;;
67053;SDS011;53960;51.826;5.850;2022-11-23T02:52:16;12.23;;;2.40;;
67053;SDS011;53960;51.826;5.850;2022-11-23T02:54:42;11.02;;;2.55;;
67053;SDS011;53960;51.826;5.850;2022-11-23T02:57:07;10.90;;;2.43;;
67053;SDS011;53960;51.826;5.850;2022-11-23T02:59:33;10.38;;;2.65;;
67053;SDS011;53960;51.826;5.850;2022-11-23T03:01:59;9.90;;;2.33;;
67053;SDS011;53960;51.826;5.850;2022-11-23T03:04:25;13.07;;;2.30;;
67053;SDS011;53960;51.826;5.850;2022-11-23T03:06:50;10.00;;;2.30;;
67053;SDS011;53960;51.826;5.850;2022-11-23T03:09:16;12.00;;;2.67;;
67053;SDS011;53960;51.826;5.850;2022-11-23T03:11:41;14.10;;;2.87;;
67053;SDS011;53960;51.826;5.850;2022-11-23T03:14:07;10.20;;;2.40;;
67053;SDS011;53960;51.826;5.850;2022-11-23T03:16:32;12.13;;;2.80;;
67053;SDS011;53960;51.826;5.850;2022-11-23T03:18:58;13.60;;;3.07;;
67053;SDS011;53960;51.826;5.850;2022-11-23T03:21:23;10.05;;;2.83;;
67053;SDS011;53960;51.826;5.850;2022-11-23T03:23:49;13.70;;;2.70;;
67053;SDS011;53960;51.826;5.850;2022-11-23T03:26:14;14.87;;;3.17;;
67053;SDS011;53960;51.826;5.850;2022-11-23T03:28:39;15.30;;;2.80;;
67053;SDS011;53960;51.826;5.850;2022-11-23T03:31:04;12.77;;;2.80;;
67053;SDS011;53960;51.826;5.850;2022-11-23T03:33:30;11.13;;;2.63;;
67053;SDS011;53960;51.826;5.850;2022-11-23T03:35:55;11.30;;;2.90;;
67053;SDS011;53960;51.826;5.850;2022-11-23T03:38:20;12.03;;;2.70;;
67053;SDS011;53960;51.826;5.850;2022-11-23T03:40:46;13.67;;;2.80;;
67053;SDS011;53960;51.826;5.850;2022-11-23T03:43:12;15.57;;;3.10;;
67053;SDS011;53960;51.826;5.850;2022-11-23T03:45:38;14.00;;;2.70;;
67053;SDS011;53960;51.826;5.850;2022-11-23T03:48:04;11.90;;;3.20;;
67053;SDS011;53960;51.826;5.850;2022-11-23T03:50:29;13.82;;;3.50;;
67053;SDS011;53960;51.826;5.850;2022-11-23T03:52:55;12.77;;;3.13;;
67053;SDS011;53960;51.826;5.850;2022-11-23T03:55:21;9.77;;;2.70;;
67053;SDS011;53960;51.826;5.850;2022-11-23T03:57:46;11.20;;;2.90;;
67053;SDS011;53960;51.826;5.850;2022-11-23T04:00:13;12.93;;;2.90;;
67053;SDS011;53960;51.826;5.850;2022-11-23T04:02:39;14.07;;;3.03;;
67053;SDS011;53960;51.826;5.850;2022-11-23T04:05:05;13.87;;;2.53;;
67053;SDS011;53960;51.826;5.850;2022-11-23T04:07:30;12.43;;;3.00;;
67053;SDS011;53960;51.826;5.850;2022-11-23T04:09:56;10.93;;;2.77;;
67053;SDS011;53960;51.826;5.850;2022-11-23T04:12:21;12.63;;;3.10;;
67053;SDS011;53960;51.826;5.850;2022-11-23T04:14:46;11.03;;;2.80;;
67053;SDS011;53960;51.826;5.850;2022-11-23T04:17:12;13.10;;;2.80;;
67053;SDS011;53960;51.826;5.850;2022-11-23T04:19:37;14.30;;;2.90;;
67053;SDS011;53960;51.826;5.850;2022-11-23T04:22:02;14.33;;;2.97;;
67053;SDS011;53960;51.826;5.850;2022-11-23T04:24:27;9.77;;;2.70;;
67053;SDS011;53960;51.826;5.850;2022-11-23T04:26:53;11.50;;;2.87;;
67053;SDS011;53960;51.826;5.850;2022-11-23T04:29:18;11.23;;;2.43;;
67053;SDS011;53960;51.826;5.850;2022-11-23T04:31:43;13.87;;;2.47;;
67053;SDS011;53960;51.826;5.850;2022-11-23T04:34:09;10.97;;;2.33;;
67053;SDS011;53960;51.826;5.850;2022-11-23T04:36:34;12.93;;;2.90;;
67053;SDS011;53960;51.826;5.850;2022-11-23T04:39:00;14.10;;;2.30;;
67053;SDS011;53960;51.826;5.850;2022-11-23T04:41:26;17.27;;;2.63;;
67053;SDS011;53960;51.826;5.850;2022-11-23T04:43:52;11.20;;;2.43;;
67053;SDS011;53960;51.826;5.850;2022-11-23T04:46:17;12.10;;;2.47;;
67053;SDS011;53960;51.826;5.850;2022-11-23T04:48:42;10.70;;;2.17;;
67053;SDS011;53960;51.826;5.850;2022-11-23T04:51:08;12.80;;;3.27;;
67053;SDS011;53960;51.826;5.850;2022-11-23T04:53:34;14.93;;;3.03;;
67053;SDS011;53960;51.826;5.850;2022-11-23T04:55:59;15.67;;;3.37;;
67053;SDS011;53960;51.826;5.850;2022-11-23T04:58:25;16.13;;;2.53;;
67053;SDS011;53960;51.826;5.850;2022-11-23T05:00:50;13.95;;;2.40;;
67053;SDS011;53960;51.826;5.850;2022-11-23T05:03:15;11.13;;;2.50;;
67053;SDS011;53960;51.826;5.850;2022-11-23T05:05:40;13.10;;;2.23;;
67053;SDS011;53960;51.826;5.850;2022-11-23T05:08:06;13.83;;;2.30;;
67053;SDS011;53960;51.826;5.850;2022-11-23T05:10:32;12.17;;;2.13;;
67053;SDS011;53960;51.826;5.850;2022-11-23T05:12:57;12.80;;;2.43;;
67053;SDS011;53960;51.826;5.850;2022-11-23T05:15:22;8.50;;;2.07;;
67053;SDS011;53960;51.826;5.850;2022-11-23T05:17:48;15.13;;;2.33;;
67053;SDS011;53960;51.826;5.850;2022-11-23T05:20:13;12.07;;;2.80;;
67053;SDS011;53960;51.826;5.850;2022-11-23T05:22:39;11.88;;;2.30;;
67053;SDS011;53960;51.826;5.850;2022-11-23T05:25:04;14.57;;;2.60;;
67053;SDS011;53960;51.826;5.850;2022-11-23T05:27:30;14.13;;;2.40;;
67053;SDS011;53960;51.826;5.850;2022-11-23T05:29:55;14.48;;;2.55;;
67053;SDS011;53960;51.826;5.850;2022-11-23T05:32:21;14.33;;;2.50;;
67053;SDS011;53960;51.826;5.850;2022-11-23T05:34:46;12.20;;;2.43;;
67053;SDS011;53960;51.826;5.850;2022-11-23T05:37:11;11.67;;;2.50;;
67053;SDS011;53960;51.826;5.850;2022-11-23T05:39:37;11.00;;;1.90;;
67053;SDS011;53960;51.826;5.850;2022-11-23T05:42:02;14.02;;;2.15;;
67053;SDS011;53960;51.826;5.850;2022-11-23T05:44:28;11.03;;;2.70;;
67053;SDS011;53960;51.826;5.850;2022-11-23T05:46:53;13.00;;;2.30;;
67053;SDS011;53960;51.826;5.850;2022-11-23T05:49:18;14.13;;;2.70;;
67053;SDS011;53960;51.826;5.850;2022-11-23T05:51:44;11.73;;;3.03;;
67053;SDS011;53960;51.826;5.850;2022-11-23T05:54:09;12.80;;;2.43;;
67053;SDS011;53960;51.826;5.850;2022-11-23T05:56:34;12.93;;;2.53;;
67053;SDS011;53960;51.826;5.850;2022-11-23T05:58:59;12.77;;;2.60;;
67053;SDS011;53960;51.826;5.850;2022-11-23T06:01:25;15.05;;;2.38;;
67053;SDS011;53960;51.826;5.850;2022-11-23T06:03:50;12.23;;;2.67;;
67053;SDS011;53960;51.826;5.850;2022-11-23T06:06:15;14.80;;;2.80;;
67053;SDS011;53960;51.826;5.850;2022-11-23T06:08:41;18.07;;;3.60;;
67053;SDS011;53960;51.826;5.850;2022-11-23T06:11:06;15.17;;;3.40;;
67053;SDS011;53960;51.826;5.850;2022-11-23T06:13:31;15.00;;;2.67;;
67053;SDS011;53960;51.826;5.850;2022-11-23T06:15:57;14.27;;;2.35;;
67053;SDS011;53960;51.826;5.850;2022-11-23T06:18:22;10.03;;;2.47;;
67053;SDS011;53960;51.826;5.850;2022-11-23T06:20:47;15.50;;;2.40;;
67053;SDS011;53960;51.826;5.850;2022-11-23T06:23:13;11.90;;;2.43;;
67053;SDS011;53960;51.826;5.850;2022-11-23T06:25:38;14.17;;;2.30;;
67053;SDS011;53960;51.826;5.850;2022-11-23T06:28:04;14.07;;;2.50;;
67053;SDS011;53960;51.826;5.850;2022-11-23T06:30:29;13.90;;;2.03;;
67053;SDS011;53960;51.826;5.850;2022-11-23T06:32:55;19.85;;;3.03;;
67053;SDS011;53960;51.826;5.850;2022-11-23T06:35:21;16.20;;;2.60;;
67053;SDS011;53960;51.826;5.850;2022-11-23T06:37:47;13.75;;;2.20;;
67053;SDS011;53960;51.826;5.850;2022-11-23T06:40:13;10.40;;;1.83;;
67053;SDS011;53960;51.826;5.850;2022-11-23T06:42:39;11.07;;;2.30;;
67053;SDS011;53960;51.826;5.850;2022-11-23T06:45:05;12.20;;;2.53;;
67053;SDS011;53960;51.826;5.850;2022-11-23T06:47:31;16.02;;;2.88;;
67053;SDS011;53960;51.826;5.850;2022-11-23T06:49:56;16.63;;;2.17;;
67053;SDS011;53960;51.826;5.850;2022-11-23T06:52:21;12.10;;;2.33;;
67053;SDS011;53960;51.826;5.850;2022-11-23T06:54:46;12.17;;;2.33;;
67053;SDS011;53960;51.826;5.850;2022-11-23T06:57:12;16.60;;;2.10;;
67053;SDS011;53960;51.826;5.850;2022-11-23T06:59:37;16.27;;;2.20;;
67053;SDS011;53960;51.826;5.850;2022-11-23T07:02:02;13.40;;;2.20;;
67053;SDS011;53960;51.826;5.850;2022-11-23T07:04:28;17.97;;;2.20;;
67053;SDS011;53960;51.826;5.850;2022-11-23T07:06:53;17.33;;;2.17;;
67053;SDS011;53960;51.826;5.850;2022-11-23T07:09:19;16.63;;;2.30;;
67053;SDS011;53960;51.826;5.850;2022-11-23T07:11:44;14.67;;;2.07;;
67053;SDS011;53960;51.826;5.850;2022-11-23T07:14:09;16.20;;;2.90;;
67053;SDS011;53960;51.826;5.850;2022-11-23T07:16:35;12.40;;;2.20;;
67053;SDS011;53960;51.826;5.850;2022-11-23T07:19:00;14.43;;;2.10;;
67053;SDS011;53960;51.826;5.850;2022-11-23T07:21:26;13.80;;;2.55;;
67053;SDS011;53960;51.826;5.850;2022-11-23T07:23:51;13.50;;;1.83;;
67053;SDS011;53960;51.826;5.850;2022-11-23T07:26:16;12.60;;;2.50;;
67053;SDS011;53960;51.826;5.850;2022-11-23T07:28:42;13.07;;;2.10;;
67053;SDS011;53960;51.826;5.850;2022-11-23T07:31:07;9.40;;;1.53;;
67053;SDS011;53960;51.826;5.850;2022-11-23T07:33:32;15.87;;;2.60;;
67053;SDS011;53960;51.826;5.850;2022-11-23T07:36:01;17.10;;;2.33;;
67053;SDS011;53960;51.826;5.850;2022-11-23T07:38:27;14.90;;;2.28;;
67053;SDS011;53960;51.826;5.850;2022-11-23T07:40:52;21.27;;;2.50;;
67053;SDS011;53960;51.826;5.850;2022-11-23T07:43:18;14.87;;;3.17;;
67053;SDS011;53960;51.826;5.850;2022-11-23T07:45:43;13.37;;;2.30;;
67053;SDS011;53960;51.826;5.850;2022-11-23T07:48:09;15.53;;;2.47;;
67053;SDS011;53960;51.826;5.850;2022-11-23T07:50:35;17.73;;;2.53;;
67053;SDS011;53960;51.826;5.850;2022-11-23T07:53:03;15.27;;;2.53;;
67053;SDS011;53960;51.826;5.850;2022-11-23T07:55:29;16.20;;;2.30;;
67053;SDS011;53960;51.826;5.850;2022-11-23T07:57:55;15.77;;;2.40;;
67053;SDS011;53960;51.826;5.850;2022-11-23T08:00:21;11.20;;;2.00;;
67053;SDS011;53960;51.826;5.850;2022-11-23T08:02:47;13.95;;;1.85;;
67053;SDS011;53960;51.826;5.850;2022-11-23T08:05:13;10.07;;;1.80;;
67053;SDS011;53960;51.826;5.850;2022-11-23T08:07:39;10.60;;;1.60;;
67053;SDS011;53960;51.826;5.850;2022-11-23T08:10:05;16.13;;;2.10;;
67053;SDS011;53960;51.826;5.850;2022-11-23T08:12:30;13.83;;;1.93;;
67053;SDS011;53960;51.826;5.850;2022-11-23T08:14:55;12.77;;;2.10;;
67053;SDS011;53960;51.826;5.850;2022-11-23T08:17:21;13.97;;;2.13;;
67053;SDS011;53960;51.826;5.850;2022-11-23T08:19:46;16.60;;;2.60;;
67053;SDS011;53960;51.826;5.850;2022-11-23T08:22:12;13.25;;;2.15;;
67053;SDS011;53960;51.826;5.850;2022-11-23T08:24:37;14.93;;;2.10;;
67053;SDS011;53960;51.826;5.850;2022-11-23T08:27:02;11.30;;;2.00;;
67053;SDS011;53960;51.826;5.850;2022-11-23T08:29:28;13.90;;;2.00;;
67053;SDS011;53960;51.826;5.850;2022-11-23T08:31:54;12.10;;;1.80;;
67053;SDS011;53960;51.826;5.850;2022-11-23T08:34:19;13.93;;;2.13;;
67053;SDS011;53960;51.826;5.850;2022-11-23T08:36:44;9.93;;;1.90;;
67053;SDS011;53960;51.826;5.850;2022-11-23T08:39:10;15.10;;;2.23;;
67053;SDS011;53960;51.826;5.850;2022-11-23T08:41:36;11.88;;;2.50;;
67053;SDS011;53960;51.826;5.850;2022-11-23T08:44:02;11.93;;;2.47;;
67053;SDS011;53960;51.826;5.850;2022-11-23T08:46:28;9.40;;;1.80;;
67053;SDS011;53960;51.826;5.850;2022-11-23T08:48:53;11.47;;;2.30;;
67053;SDS011;53960;51.826;5.850;2022-11-23T08:51:18;16.00;;;2.47;;
67053;SDS011;53960;51.826;5.850;2022-11-23T08:53:46;13.95;;;2.78;;
67053;SDS011;53960;51.826;5.850;2022-11-23T08:56:15;11.50;;;1.90;;
67053;SDS011;53960;51.826;5.850;2022-11-23T08:58:40;12.68;;;2.15;;
67053;SDS011;53960;51.826;5.850;2022-11-23T09:01:09;15.80;;;2.43;;
67053;SDS011;53960;51.826;5.850;2022-11-23T09:03:36;15.27;;;2.30;;
67053;SDS011;53960;51.826;5.850;2022-11-23T09:06:01;14.60;;;2.47;;
67053;SDS011;53960;51.826;5.850;2022-11-23T09:08:27;11.23;;;2.23;;
67053;SDS011;53960;51.826;5.850;2022-11-23T09:10:52;14.93;;;2.55;;
67053;SDS011;53960;51.826;5.850;2022-11-23T09:13:18;13.47;;;2.27;;
67053;SDS011;53960;51.826;5.850;2022-11-23T09:15:43;13.07;;;2.10;;
67053;SDS011;53960;51.826;5.850;2022-11-23T09:18:09;16.17;;;2.30;;
67053;SDS011;53960;51.826;5.850;2022-11-23T09:20:35;11.27;;;2.05;;
67053;SDS011;53960;51.826;5.850;2022-11-23T09:23:00;15.13;;;2.37;;
67053;SDS011;53960;51.826;5.850;2022-11-23T09:25:26;11.20;;;2.28;;
67053;SDS011;53960;51.826;5.850;2022-11-23T09:27:57;12.17;;;2.27;;
67053;SDS011;53960;51.826;5.850;2022-11-23T09:30:23;16.10;;;2.35;;
67053;SDS011;53960;51.826;5.850;2022-11-23T09:32:49;11.90;;;1.90;;
67053;SDS011;53960;51.826;5.850;2022-11-23T09:35:14;12.80;;;2.10;;
67053;SDS011;53960;51.826;5.850;2022-11-23T09:37:40;12.95;;;2.28;;
67053;SDS011;53960;51.826;5.850;2022-11-23T09:40:06;13.37;;;2.20;;
67053;SDS011;53960;51.826;5.850;2022-11-23T09:42:56;15.68;;;1.92;;
67053;SDS011;53960;51.826;5.850;2022-11-23T09:45:29;11.23;;;2.17;;
67053;SDS011;53960;51.826;5.850;2022-11-23T09:48:13;12.45;;;1.83;;
67053;SDS011;53960;51.826;5.850;2022-11-23T09:50:58;11.85;;;1.80;;
67053;SDS011;53960;51.826;5.850;2022-11-23T09:53:31;14.98;;;2.10;;
67053;SDS011;53960;51.826;5.850;2022-11-23T09:56:04;12.93;;;2.33;;
67053;SDS011;53960;51.826;5.850;2022-11-23T09:58:35;12.00;;;1.93;;
67053;SDS011;53960;51.826;5.850;2022-11-23T10:01:06;8.20;;;1.45;;
67053;SDS011;53960;51.826;5.850;2022-11-23T10:03:36;16.25;;;2.53;;
67053;SDS011;53960;51.826;5.850;2022-11-23T10:06:11;13.45;;;2.80;;
67053;SDS011;53960;51.826;5.850;2022-11-23T10:14:26;12.63;;;2.78;;
67053;SDS011;53960;51.826;5.850;2022-11-23T10:17:14;13.20;;;1.80;;
67053;SDS011;53960;51.826;5.850;2022-11-23T10:25:14;12.63;;;2.23;;
67053;SDS011;53960;51.826;5.850;2022-11-23T10:27:42;13.38;;;1.95;;
67053;SDS011;53960;51.826;5.850;2022-11-23T10:30:11;13.45;;;2.22;;
67053;SDS011;53960;51.826;5.850;2022-11-23T10:32:43;10.55;;;2.08;;
67053;SDS011;53960;51.826;5.850;2022-11-23T10:35:17;11.20;;;2.20;;
67053;SDS011;53960;51.826;5.850;2022-11-23T10:38:01;11.03;;;2.20;;
67053;SDS011;53960;51.826;5.850;2022-11-23T10:43:42;10.75;;;1.70;;
67053;SDS011;53960;51.826;5.850;2022-11-23T10:46:28;16.98;;;1.98;;
67053;SDS011;53960;51.826;5.850;2022-11-23T10:49:08;10.27;;;1.70;;
67053;SDS011;53960;51.826;5.850;2022-11-23T10:51:39;12.40;;;1.60;;
67053;SDS011;53960;51.826;5.850;2022-11-23T10:54:05;10.35;;;2.00;;
67053;SDS011;53960;51.826;5.850;2022-11-23T10:56:47;10.00;;;1.67;;
67053;SDS011;53960;51.826;5.850;2022-11-23T10:59:35;10.10;;;1.50;;
67053;SDS011;53960;51.826;5.850;2022-11-23T11:04:29;12.10;;;1.70;;
67053;SDS011;53960;51.826;5.850;2022-11-23T11:07:08;9.27;;;1.90;;
67053;SDS011;53960;51.826;5.850;2022-11-23T11:09:35;10.82;;;1.70;;
67053;SDS011;53960;51.826;5.850;2022-11-23T11:12:00;9.07;;;1.50;;
67053;SDS011;53960;51.826;5.850;2022-11-23T11:14:26;13.50;;;1.70;;
67053;SDS011;53960;51.826;5.850;2022-11-23T11:16:53;9.55;;;1.30;;
67053;SDS011;53960;51.826;5.850;2022-11-23T11:21:53;9.00;;;1.42;;
67053;SDS011;53960;51.826;5.850;2022-11-23T11:24:19;12.03;;;1.33;;
67053;SDS011;53960;51.826;5.850;2022-11-23T11:26:52;8.95;;;1.40;;
67053;SDS011;53960;51.826;5.850;2022-11-23T11:29:38;7.65;;;1.30;;
67053;SDS011;53960;51.826;5.850;2022-11-23T11:35:01;9.55;;;1.50;;
67053;SDS011;53960;51.826;5.850;2022-11-23T11:37:48;9.20;;;1.40;;
67053;SDS011;53960;51.826;5.850;2022-11-23T11:40:16;12.35;;;1.30;;
67053;SDS011;53960;51.826;5.850;2022-11-23T11:42:48;8.98;;;1.30;;
67053;SDS011;53960;51.826;5.850;2022-11-23T11:45:23;11.00;;;1.40;;
67053;SDS011;53960;51.826;5.850;2022-11-23T11:48:08;8.32;;;1.20;;
67053;SDS011;53960;51.826;5.850;2022-11-23T11:50:40;6.53;;;1.50;;
67053;SDS011;53960;51.826;5.850;2022-11-23T11:53:14;10.63;;;1.52;;
67053;SDS011;53960;51.826;5.850;2022-11-23T11:55:53;9.63;;;1.33;;
67053;SDS011;53960;51.826;5.850;2022-11-23T11:58:24;11.90;;;2.35;;
67053;SDS011;53960;51.826;5.850;2022-11-23T12:00:50;9.50;;;1.52;;
67053;SDS011;53960;51.826;5.850;2022-11-23T12:03:38;10.17;;;1.43;;
67053;SDS011;53960;51.826;5.850;2022-11-23T12:06:10;12.57;;;1.50;;
67053;SDS011;53960;51.826;5.850;2022-11-23T12:08:46;8.68;;;1.55;;
67053;SDS011;53960;51.826;5.850;2022-11-23T12:11:16;10.02;;;1.63;;
67053;SDS011;53960;51.826;5.850;2022-11-23T12:13:43;14.60;;;1.50;;
67053;SDS011;53960;51.826;5.850;2022-11-23T12:16:23;7.13;;;1.20;;
67053;SDS011;53960;51.826;5.850;2022-11-23T12:18:59;8.40;;;1.58;;
67053;SDS011;53960;51.826;5.850;2022-11-23T12:21:43;8.52;;;1.42;;
67053;SDS011;53960;51.826;5.850;2022-11-23T12:35:47;8.77;;;1.58;;
67053;SDS011;53960;51.826;5.850;2022-11-23T12:47:12;8.20;;;1.27;;
67053;SDS011;53960;51.826;5.850;2022-11-23T12:49:50;7.15;;;1.10;;
67053;SDS011;53960;51.826;5.850;2022-11-23T12:55:21;8.65;;;1.13;;
67053;SDS011;53960;51.826;5.850;2022-11-23T12:58:08;8.90;;;1.20;;
67053;SDS011;53960;51.826;5.850;2022-11-23T13:01:23;6.97;;;1.17;;
67053;SDS011;53960;51.826;5.850;2022-11-23T13:09:25;6.22;;;0.90;;
67053;SDS011;53960;51.826;5.850;2022-11-23T13:14:59;8.27;;;1.10;;
67053;SDS011;53960;51.826;5.850;2022-11-23T13:20:14;9.05;;;1.73;;
67053;SDS011;53960;51.826;5.850;2022-11-23T13:22:46;8.05;;;1.20;;
67053;SDS011;53960;51.826;5.850;2022-11-23T13:25:26;6.83;;;1.20;;
67053;SDS011;53960;51.826;5.850;2022-11-23T13:27:53;8.90;;;1.30;;
67053;SDS011;53960;51.826;5.850;2022-11-23T13:38:16;6.90;;;1.23;;
67053;SDS011;53960;51.826;5.850;2022-11-23T13:40:43;8.07;;;1.25;;
67053;SDS011;53960;51.826;5.850;2022-11-23T13:43:13;7.03;;;1.40;;
67053;SDS011;53960;51.826;5.850;2022-11-23T13:45:39;9.65;;;1.30;;
67053;SDS011;53960;51.826;5.850;2022-11-23T13:50:33;8.57;;;1.40;;
67053;SDS011;53960;51.826;5.850;2022-11-23T13:53:19;11.68;;;1.35;;
67053;SDS011;53960;51.826;5.850;2022-11-23T13:55:47;9.82;;;1.27;;
67053;SDS011;53960;51.826;5.850;2022-11-23T14:00:48;7.80;;;1.40;;
67053;SDS011;53960;51.826;5.850;2022-11-23T14:06:19;8.75;;;1.33;;
67053;SDS011;53960;51.826;5.850;2022-11-23T14:08:46;11.27;;;2.08;;
67053;SDS011;53960;51.826;5.850;2022-11-23T14:11:16;9.88;;;1.40;;
67053;SDS011;53960;51.826;5.850;2022-11-23T14:13:50;7.28;;;1.20;;
67053;SDS011;53960;51.826;5.850;2022-11-23T14:16:22;7.57;;;1.40;;
67053;SDS011;53960;51.826;5.850;2022-11-23T14:19:23;7.70;;;1.40;;
67053;SDS011;53960;51.826;5.850;2022-11-23T14:27:24;6.37;;;1.20;;
67053;SDS011;53960;51.826;5.850;2022-11-23T14:29:58;8.90;;;1.20;;
67053;SDS011;53960;51.826;5.850;2022-11-23T14:32:45;6.60;;;1.30;;
67053;SDS011;53960;51.826;5.850;2022-11-23T14:35:28;8.27;;;1.15;;
67053;SDS011;53960;51.826;5.850;2022-11-23T14:44:01;9.32;;;1.60;;
67053;SDS011;53960;51.826;5.850;2022-11-23T14:46:28;9.37;;;1.70;;
67053;SDS011;53960;51.826;5.850;2022-11-23T14:49:09;8.13;;;1.65;;
67053;SDS011;53960;51.826;5.850;2022-11-23T14:51:40;13.70;;;3.92;;
67053;SDS011;53960;51.826;5.850;2022-11-23T14:54:08;10.97;;;3.67;;
67053;SDS011;53960;51.826;5.850;2022-11-23T14:59:03;9.20;;;3.28;;
67053;SDS011;53960;51.826;5.850;2022-11-23T15:01:31;10.02;;;2.10;;
67053;SDS011;53960;51.826;5.850;2022-11-23T15:04:07;8.33;;;1.93;;
67053;SDS011;53960;51.826;5.850;2022-11-23T15:06:36;10.02;;;2.63;;
67053;SDS011;53960;51.826;5.850;2022-11-23T15:09:50;12.45;;;3.28;;
67053;SDS011;53960;51.826;5.850;2022-11-23T15:12:27;9.33;;;3.27;;
67053;SDS011;53960;51.826;5.850;2022-11-23T15:18:03;8.00;;;2.15;;
67053;SDS011;53960;51.826;5.850;2022-11-23T15:20:30;10.33;;;2.13;;
67053;SDS011;53960;51.826;5.850;2022-11-23T15:23:00;8.80;;;2.28;;
67053;SDS011;53960;51.826;5.850;2022-11-23T15:25:26;10.85;;;3.08;;
67053;SDS011;53960;51.826;5.850;2022-11-23T15:27:52;12.80;;;3.57;;
67053;SDS011;53960;51.826;5.850;2022-11-23T15:30:21;12.60;;;3.30;;
67053;SDS011;53960;51.826;5.850;2022-11-23T15:32:56;13.77;;;4.45;;
67053;SDS011;53960;51.826;5.850;2022-11-23T15:35:24;14.23;;;3.72;;
67053;SDS011;53960;51.826;5.850;2022-11-23T15:37:54;20.90;;;5.35;;
67053;SDS011;53960;51.826;5.850;2022-11-23T15:40:20;20.87;;;5.20;;
67053;SDS011;53960;51.826;5.850;2022-11-23T15:42:48;20.83;;;4.80;;
67053;SDS011;53960;51.826;5.850;2022-11-23T15:45:33;51.13;;;15.02;;
67053;SDS011;53960;51.826;5.850;2022-11-23T15:48:11;71.72;;;18.58;;
67053;SDS011;53960;51.826;5.850;2022-11-23T15:50:55;47.17;;;11.43;;
67053;SDS011;53960;51.826;5.850;2022-11-23T15:53:26;24.20;;;6.75;;
67053;SDS011;53960;51.826;5.850;2022-11-23T15:55:52;32.58;;;10.55;;
67053;SDS011;53960;51.826;5.850;2022-11-23T15:58:22;11.88;;;3.58;;
67053;SDS011;53960;51.826;5.850;2022-11-23T16:00:56;10.47;;;3.20;;
67053;SDS011;53960;51.826;5.850;2022-11-23T16:08:35;9.13;;;2.92;;
67053;SDS011;53960;51.826;5.850;2022-11-23T16:11:01;9.50;;;2.70;;
67053;SDS011;53960;51.826;5.850;2022-11-23T16:13:32;8.20;;;3.00;;
67053;SDS011;53960;51.826;5.850;2022-11-23T16:15:59;10.35;;;2.72;;
67053;SDS011;53960;51.826;5.850;2022-11-23T16:18:33;9.60;;;3.10;;
67053;SDS011;53960;51.826;5.850;2022-11-23T16:21:00;9.02;;;2.60;;
67053;SDS011;53960;51.826;5.850;2022-11-23T16:23:27;8.77;;;2.83;;
67053;SDS011;53960;51.826;5.850;2022-11-23T16:26:04;8.73;;;2.30;;